sensor_id;sensor_type;location;lat;lon;timestamp;temperature;humidity
47600;DHT22;33323;52.124;6.018;2024-03-06T00:00:26;6.50;99.90
47600;DHT22;33323;52.124;6.018;2024-03-06T00:02:53;6.60;99.90
47600;DHT22;33323;52.124;6.018;2024-03-06T00:05:20;6.50;99.90
47600;DHT22;33323;52.124;6.018;2024-03-06T00:07:48;6.50;99.90
47600;DHT22;33323;52.124;6.018;2024-03-06T00:10:15;6.60;99.90
47600;DHT22;33323;52.124;6.018;2024-03-06T00:12:42;6.60;99.90
47600;DHT22;33323;52.124;6.018;2024-03-06T00:15:09;6.60;99.90
47600;DHT22;33323;52.124;6.018;2024-03-06T00:17:36;6.60;99.90
47600;DHT22;33323;52.124;6.018;2024-03-06T00:20:03;6.60;99.90
47600;DHT22;33323;52.124;6.018;2024-03-06T00:22:32;6.60;99.90
47600;DHT22;33323;52.124;6.018;2024-03-06T00:24:59;6.60;99.90
47600;DHT22;33323;52.124;6.018;2024-03-06T00:27:26;6.60;99.90
47600;DHT22;33323;52.124;6.018;2024-03-06T00:29:53;6.60;99.90
47600;DHT22;33323;52.124;6.018;2024-03-06T00:32:20;6.60;99.90
47600;DHT22;33323;52.124;6.018;2024-03-06T00:34:47;6.60;99.90
47600;DHT22;33323;52.124;6.018;2024-03-06T00:37:14;6.60;99.90
47600;DHT22;33323;52.124;6.018;2024-03-06T00:39:41;6.60;99.90
47600;DHT22;33323;52.124;6.018;2024-03-06T00:42:09;6.60;99.90
47600;DHT22;33323;52.124;6.018;2024-03-06T00:44:37;6.60;99.90
47600;DHT22;33323;52.124;6.018;2024-03-06T00:47:04;6.50;99.90
47600;DHT22;33323;52.124;6.018;2024-03-06T00:49:31;6.60;99.90
47600;DHT22;33323;52.124;6.018;2024-03-06T00:51:58;6.50;99.90
47600;DHT22;33323;52.124;6.018;2024-03-06T00:54:25;6.60;99.90
47600;DHT22;33323;52.124;6.018;2024-03-06T00:56:52;6.50;99.90
47600;DHT22;33323;52.124;6.018;2024-03-06T00:59:19;6.50;99.90
47600;DHT22;33323;52.124;6.018;2024-03-06T01:01:47;6.50;99.90
47600;DHT22;33323;52.124;6.018;2024-03-06T01:04:14;6.50;99.90
47600;DHT22;33323;52.124;6.018;2024-03-06T01:06:41;6.60;99.90
47600;DHT22;33323;52.124;6.018;2024-03-06T01:09:09;6.60;99.90
47600;DHT22;33323;52.124;6.018;2024-03-06T01:11:36;6.60;99.90
47600;DHT22;33323;52.124;6.018;2024-03-06T01:14:03;6.60;99.90
47600;DHT22;33323;52.124;6.018;2024-03-06T01:16:31;6.60;99.90
47600;DHT22;33323;52.124;6.018;2024-03-06T01:18:58;6.50;99.90
47600;DHT22;33323;52.124;6.018;2024-03-06T01:21:26;6.50;99.90
47600;DHT22;33323;52.124;6.018;2024-03-06T01:23:53;6.50;99.90
47600;DHT22;33323;52.124;6.018;2024-03-06T01:26:21;6.40;99.90
47600;DHT22;33323;52.124;6.018;2024-03-06T01:28:48;6.40;99.90
47600;DHT22;33323;52.124;6.018;2024-03-06T01:31:16;6.40;99.90
47600;DHT22;33323;52.124;6.018;2024-03-06T01:33:43;6.40;99.90
47600;DHT22;33323;52.124;6.018;2024-03-06T01:36:10;6.40;99.90
47600;DHT22;33323;52.124;6.018;2024-03-06T01:38:38;6.40;99.90
47600;DHT22;33323;52.124;6.018;2024-03-06T01:41:05;6.30;99.90
47600;DHT22;33323;52.124;6.018;2024-03-06T01:43:37;6.30;99.90
47600;DHT22;33323;52.124;6.018;2024-03-06T01:46:06;6.30;99.90
47600;DHT22;33323;52.124;6.018;2024-03-06T01:48:34;6.30;99.90
47600;DHT22;33323;52.124;6.018;2024-03-06T01:51:02;6.30;99.90
47600;DHT22;33323;52.124;6.018;2024-03-06T01:53:32;6.30;99.90
47600;DHT22;33323;52.124;6.018;2024-03-06T01:56:01;6.30;99.90
47600;DHT22;33323;52.124;6.018;2024-03-06T01:58:28;6.20;99.90
47600;DHT22;33323;52.124;6.018;2024-03-06T02:00:56;6.20;99.90
47600;DHT22;33323;52.124;6.018;2024-03-06T02:03:25;6.20;99.90
47600;DHT22;33323;52.124;6.018;2024-03-06T02:05:53;6.20;99.90
47600;DHT22;33323;52.124;6.018;2024-03-06T02:08:20;6.20;99.90
47600;DHT22;33323;52.124;6.018;2024-03-06T02:10:48;6.20;99.90
47600;DHT22;33323;52.124;6.018;2024-03-06T02:13:15;6.20;99.90
47600;DHT22;33323;52.124;6.018;2024-03-06T02:15:44;6.20;99.90
47600;DHT22;33323;52.124;6.018;2024-03-06T02:18:12;6.20;99.90
47600;DHT22;33323;52.124;6.018;2024-03-06T02:20:39;6.10;99.90
47600;DHT22;33323;52.124;6.018;2024-03-06T02:23:07;6.10;99.90
47600;DHT22;33323;52.124;6.018;2024-03-06T02:25:35;6.20;99.90
47600;DHT22;33323;52.124;6.018;2024-03-06T02:28:03;6.10;99.90
47600;DHT22;33323;52.124;6.018;2024-03-06T02:30:33;6.10;99.90
47600;DHT22;33323;52.124;6.018;2024-03-06T02:33:04;6.10;99.90
47600;DHT22;33323;52.124;6.018;2024-03-06T02:35:33;6.00;99.90
47600;DHT22;33323;52.124;6.018;2024-03-06T02:38:03;6.00;99.90
47600;DHT22;33323;52.124;6.018;2024-03-06T02:40:33;5.90;99.90
47600;DHT22;33323;52.124;6.018;2024-03-06T02:43:01;5.80;99.90
47600;DHT22;33323;52.124;6.018;2024-03-06T02:45:28;5.70;99.90
47600;DHT22;33323;52.124;6.018;2024-03-06T02:47:55;5.70;99.90
47600;DHT22;33323;52.124;6.018;2024-03-06T02:50:22;5.60;99.90
47600;DHT22;33323;52.124;6.018;2024-03-06T02:52:50;5.50;99.90
47600;DHT22;33323;52.124;6.018;2024-03-06T02:55:18;5.40;99.90
47600;DHT22;33323;52.124;6.018;2024-03-06T02:57:46;5.30;99.90
47600;DHT22;33323;52.124;6.018;2024-03-06T03:00:13;5.20;99.90
47600;DHT22;33323;52.124;6.018;2024-03-06T03:02:42;5.20;99.90
47600;DHT22;33323;52.124;6.018;2024-03-06T03:05:10;5.10;99.90
47600;DHT22;33323;52.124;6.018;2024-03-06T03:07:37;5.20;99.90
47600;DHT22;33323;52.124;6.018;2024-03-06T03:10:04;5.00;99.90
47600;DHT22;33323;52.124;6.018;2024-03-06T03:12:32;5.00;99.90
47600;DHT22;33323;52.124;6.018;2024-03-06T03:15:00;4.90;99.90
47600;DHT22;33323;52.124;6.018;2024-03-06T03:17:27;4.90;99.90
47600;DHT22;33323;52.124;6.018;2024-03-06T03:19:54;4.90;99.90
47600;DHT22;33323;52.124;6.018;2024-03-06T03:22:21;4.90;99.90
47600;DHT22;33323;52.124;6.018;2024-03-06T03:24:48;4.80;99.90
47600;DHT22;33323;52.124;6.018;2024-03-06T03:27:15;4.70;99.90
47600;DHT22;33323;52.124;6.018;2024-03-06T03:29:43;4.60;99.90
47600;DHT22;33323;52.124;6.018;2024-03-06T03:32:10;4.60;99.90
47600;DHT22;33323;52.124;6.018;2024-03-06T03:34:37;4.60;99.90
47600;DHT22;33323;52.124;6.018;2024-03-06T03:37:04;4.50;99.90
47600;DHT22;33323;52.124;6.018;2024-03-06T03:39:31;4.40;99.90
47600;DHT22;33323;52.124;6.018;2024-03-06T03:41:58;4.40;99.90
47600;DHT22;33323;52.124;6.018;2024-03-06T03:44:25;4.30;99.90
47600;DHT22;33323;52.124;6.018;2024-03-06T03:46:52;4.30;99.90
47600;DHT22;33323;52.124;6.018;2024-03-06T03:49:19;4.20;99.90
47600;DHT22;33323;52.124;6.018;2024-03-06T03:51:46;4.10;99.90
47600;DHT22;33323;52.124;6.018;2024-03-06T03:54:13;4.20;99.90
47600;DHT22;33323;52.124;6.018;2024-03-06T03:56:41;4.20;99.90
47600;DHT22;33323;52.124;6.018;2024-03-06T03:59:08;4.20;99.90
47600;DHT22;33323;52.124;6.018;2024-03-06T04:01:35;4.00;99.90
47600;DHT22;33323;52.124;6.018;2024-03-06T04:04:02;4.00;99.90
47600;DHT22;33323;52.124;6.018;2024-03-06T04:06:29;4.00;99.90
47600;DHT22;33323;52.124;6.018;2024-03-06T04:08:57;4.00;99.90
47600;DHT22;33323;52.124;6.018;2024-03-06T04:11:24;4.00;99.90
47600;DHT22;33323;52.124;6.018;2024-03-06T04:13:52;3.90;99.90
47600;DHT22;33323;52.124;6.018;2024-03-06T04:16:19;3.90;99.90
47600;DHT22;33323;52.124;6.018;2024-03-06T04:18:46;3.90;99.90
47600;DHT22;33323;52.124;6.018;2024-03-06T04:21:14;3.90;99.90
47600;DHT22;33323;52.124;6.018;2024-03-06T04:23:43;3.80;99.90
47600;DHT22;33323;52.124;6.018;2024-03-06T04:26:13;3.70;99.90
47600;DHT22;33323;52.124;6.018;2024-03-06T04:28:40;3.70;99.90
47600;DHT22;33323;52.124;6.018;2024-03-06T04:31:08;3.70;99.90
47600;DHT22;33323;52.124;6.018;2024-03-06T04:33:35;3.60;99.90
47600;DHT22;33323;52.124;6.018;2024-03-06T04:36:04;3.70;99.90
47600;DHT22;33323;52.124;6.018;2024-03-06T04:38:35;3.80;99.90
47600;DHT22;33323;52.124;6.018;2024-03-06T04:41:05;3.90;99.90
47600;DHT22;33323;52.124;6.018;2024-03-06T04:43:33;3.80;99.90
47600;DHT22;33323;52.124;6.018;2024-03-06T04:46:01;3.70;99.90
47600;DHT22;33323;52.124;6.018;2024-03-06T04:48:28;3.70;99.90
47600;DHT22;33323;52.124;6.018;2024-03-06T04:50:55;3.70;99.90
47600;DHT22;33323;52.124;6.018;2024-03-06T04:53:22;3.80;99.90
47600;DHT22;33323;52.124;6.018;2024-03-06T04:55:50;3.90;99.90
47600;DHT22;33323;52.124;6.018;2024-03-06T04:58:17;3.90;99.90
47600;DHT22;33323;52.124;6.018;2024-03-06T05:00:45;3.90;99.90
47600;DHT22;33323;52.124;6.018;2024-03-06T05:03:12;3.90;99.90
47600;DHT22;33323;52.124;6.018;2024-03-06T05:05:57;3.90;99.90
47600;DHT22;33323;52.124;6.018;2024-03-06T05:08:41;3.90;99.90
47600;DHT22;33323;52.124;6.018;2024-03-06T05:11:27;3.90;99.90
47600;DHT22;33323;52.124;6.018;2024-03-06T05:14:11;3.90;99.90
47600;DHT22;33323;52.124;6.018;2024-03-06T05:16:59;3.90;99.90
47600;DHT22;33323;52.124;6.018;2024-03-06T05:19:45;3.90;99.90
47600;DHT22;33323;52.124;6.018;2024-03-06T05:22:30;3.90;99.90
47600;DHT22;33323;52.124;6.018;2024-03-06T05:25:14;3.90;99.90
47600;DHT22;33323;52.124;6.018;2024-03-06T05:27:59;3.90;99.90
47600;DHT22;33323;52.124;6.018;2024-03-06T05:30:44;3.80;99.90
47600;DHT22;33323;52.124;6.018;2024-03-06T05:33:35;3.80;99.90
47600;DHT22;33323;52.124;6.018;2024-03-06T05:36:20;3.80;99.90
47600;DHT22;33323;52.124;6.018;2024-03-06T05:39:04;3.70;99.90
47600;DHT22;33323;52.124;6.018;2024-03-06T05:42:00;3.80;99.90
47600;DHT22;33323;52.124;6.018;2024-03-06T05:44:49;3.80;99.90
47600;DHT22;33323;52.124;6.018;2024-03-06T05:47:34;3.80;99.90
47600;DHT22;33323;52.124;6.018;2024-03-06T05:50:19;3.70;99.90
47600;DHT22;33323;52.124;6.018;2024-03-06T05:53:04;3.60;99.90
47600;DHT22;33323;52.124;6.018;2024-03-06T05:55:49;3.50;99.90
47600;DHT22;33323;52.124;6.018;2024-03-06T05:58:34;3.50;99.90
47600;DHT22;33323;52.124;6.018;2024-03-06T06:01:01;3.50;99.90
47600;DHT22;33323;52.124;6.018;2024-03-06T06:03:30;3.50;99.90
47600;DHT22;33323;52.124;6.018;2024-03-06T06:05:58;3.50;99.90
47600;DHT22;33323;52.124;6.018;2024-03-06T06:08:28;3.50;99.90
47600;DHT22;33323;52.124;6.018;2024-03-06T06:10:56;3.50;99.90
47600;DHT22;33323;52.124;6.018;2024-03-06T06:13:24;3.40;99.90
47600;DHT22;33323;52.124;6.018;2024-03-06T06:15:51;3.40;99.90
47600;DHT22;33323;52.124;6.018;2024-03-06T06:18:18;3.40;99.90
47600;DHT22;33323;52.124;6.018;2024-03-06T06:20:46;3.50;99.90
47600;DHT22;33323;52.124;6.018;2024-03-06T06:23:14;3.50;99.90
47600;DHT22;33323;52.124;6.018;2024-03-06T06:25:41;3.50;99.90
47600;DHT22;33323;52.124;6.018;2024-03-06T06:28:12;3.60;99.90
47600;DHT22;33323;52.124;6.018;2024-03-06T06:30:39;3.60;99.90
47600;DHT22;33323;52.124;6.018;2024-03-06T06:33:07;3.60;99.90
47600;DHT22;33323;52.124;6.018;2024-03-06T06:35:37;3.70;99.90
47600;DHT22;33323;52.124;6.018;2024-03-06T06:38:05;3.80;99.90
47600;DHT22;33323;52.124;6.018;2024-03-06T06:40:33;3.90;99.90
47600;DHT22;33323;52.124;6.018;2024-03-06T06:43:00;3.90;99.90
47600;DHT22;33323;52.124;6.018;2024-03-06T06:45:27;3.90;99.90
47600;DHT22;33323;52.124;6.018;2024-03-06T06:47:55;3.90;99.90
47600;DHT22;33323;52.124;6.018;2024-03-06T06:50:22;3.90;99.90
47600;DHT22;33323;52.124;6.018;2024-03-06T06:52:53;4.00;99.90
47600;DHT22;33323;52.124;6.018;2024-03-06T06:55:20;4.00;99.90
47600;DHT22;33323;52.124;6.018;2024-03-06T06:57:50;3.90;99.90
47600;DHT22;33323;52.124;6.018;2024-03-06T07:00:18;3.90;99.90
47600;DHT22;33323;52.124;6.018;2024-03-06T07:02:50;3.80;99.90
47600;DHT22;33323;52.124;6.018;2024-03-06T07:05:18;3.90;99.90
47600;DHT22;33323;52.124;6.018;2024-03-06T07:07:46;3.70;99.90
47600;DHT22;33323;52.124;6.018;2024-03-06T07:10:16;3.70;99.90
47600;DHT22;33323;52.124;6.018;2024-03-06T07:12:44;3.70;99.90
47600;DHT22;33323;52.124;6.018;2024-03-06T07:15:11;3.80;99.90
47600;DHT22;33323;52.124;6.018;2024-03-06T07:17:39;3.90;99.90
47600;DHT22;33323;52.124;6.018;2024-03-06T07:20:07;4.00;99.90
47600;DHT22;33323;52.124;6.018;2024-03-06T07:22:35;4.10;99.90
47600;DHT22;33323;52.124;6.018;2024-03-06T07:25:03;4.20;99.90
47600;DHT22;33323;52.124;6.018;2024-03-06T07:27:32;4.20;99.90
47600;DHT22;33323;52.124;6.018;2024-03-06T07:30:00;4.30;99.90
47600;DHT22;33323;52.124;6.018;2024-03-06T07:32:27;4.40;99.90
47600;DHT22;33323;52.124;6.018;2024-03-06T07:34:55;4.50;99.90
47600;DHT22;33323;52.124;6.018;2024-03-06T07:37:23;4.50;99.90
47600;DHT22;33323;52.124;6.018;2024-03-06T07:39:51;4.50;99.90
47600;DHT22;33323;52.124;6.018;2024-03-06T07:42:20;4.60;99.90
47600;DHT22;33323;52.124;6.018;2024-03-06T07:44:48;4.70;99.90
47600;DHT22;33323;52.124;6.018;2024-03-06T07:47:15;4.70;99.90
47600;DHT22;33323;52.124;6.018;2024-03-06T07:49:43;4.80;99.90
47600;DHT22;33323;52.124;6.018;2024-03-06T07:52:11;4.80;99.90
47600;DHT22;33323;52.124;6.018;2024-03-06T07:54:39;4.70;99.90
47600;DHT22;33323;52.124;6.018;2024-03-06T07:57:06;4.80;99.90
47600;DHT22;33323;52.124;6.018;2024-03-06T07:59:36;4.80;99.90
47600;DHT22;33323;52.124;6.018;2024-03-06T08:02:03;4.90;99.90
47600;DHT22;33323;52.124;6.018;2024-03-06T08:04:32;4.90;99.90
47600;DHT22;33323;52.124;6.018;2024-03-06T08:06:59;5.00;99.90
47600;DHT22;33323;52.124;6.018;2024-03-06T08:09:27;5.00;99.90
47600;DHT22;33323;52.124;6.018;2024-03-06T08:11:55;5.00;99.90
47600;DHT22;33323;52.124;6.018;2024-03-06T08:14:23;5.10;99.90
47600;DHT22;33323;52.124;6.018;2024-03-06T08:16:51;5.20;99.90
47600;DHT22;33323;52.124;6.018;2024-03-06T08:19:18;5.30;99.90
47600;DHT22;33323;52.124;6.018;2024-03-06T08:21:45;5.30;99.90
47600;DHT22;33323;52.124;6.018;2024-03-06T08:24:13;5.30;99.90
47600;DHT22;33323;52.124;6.018;2024-03-06T08:26:43;5.40;99.90
47600;DHT22;33323;52.124;6.018;2024-03-06T08:29:10;5.50;99.90
47600;DHT22;33323;52.124;6.018;2024-03-06T08:31:37;5.40;99.90
47600;DHT22;33323;52.124;6.018;2024-03-06T08:34:05;5.50;99.90
47600;DHT22;33323;52.124;6.018;2024-03-06T08:36:33;5.50;99.90
47600;DHT22;33323;52.124;6.018;2024-03-06T08:39:01;5.50;99.90
47600;DHT22;33323;52.124;6.018;2024-03-06T08:41:29;5.50;99.90
47600;DHT22;33323;52.124;6.018;2024-03-06T08:43:56;5.30;99.90
47600;DHT22;33323;52.124;6.018;2024-03-06T08:46:24;5.40;99.90
47600;DHT22;33323;52.124;6.018;2024-03-06T08:48:51;5.50;99.90
47600;DHT22;33323;52.124;6.018;2024-03-06T08:51:19;5.50;99.90
47600;DHT22;33323;52.124;6.018;2024-03-06T08:53:46;5.40;99.90
47600;DHT22;33323;52.124;6.018;2024-03-06T08:56:15;5.50;99.90
47600;DHT22;33323;52.124;6.018;2024-03-06T08:58:42;5.50;99.90
47600;DHT22;33323;52.124;6.018;2024-03-06T09:01:09;5.50;99.90
47600;DHT22;33323;52.124;6.018;2024-03-06T09:03:36;5.60;99.90
47600;DHT22;33323;52.124;6.018;2024-03-06T09:06:04;5.60;99.90
47600;DHT22;33323;52.124;6.018;2024-03-06T09:08:32;5.40;99.90
47600;DHT22;33323;52.124;6.018;2024-03-06T09:10:59;5.50;99.90
47600;DHT22;33323;52.124;6.018;2024-03-06T09:13:27;5.60;99.90
47600;DHT22;33323;52.124;6.018;2024-03-06T09:15:56;5.70;99.90
47600;DHT22;33323;52.124;6.018;2024-03-06T09:18:24;5.80;99.90
47600;DHT22;33323;52.124;6.018;2024-03-06T09:20:51;5.90;99.90
47600;DHT22;33323;52.124;6.018;2024-03-06T09:23:18;5.90;99.90
47600;DHT22;33323;52.124;6.018;2024-03-06T09:25:46;6.00;99.90
47600;DHT22;33323;52.124;6.018;2024-03-06T09:28:15;6.10;99.90
47600;DHT22;33323;52.124;6.018;2024-03-06T09:30:42;6.20;99.90
47600;DHT22;33323;52.124;6.018;2024-03-06T09:33:09;6.20;99.90
47600;DHT22;33323;52.124;6.018;2024-03-06T09:35:37;6.10;99.90
47600;DHT22;33323;52.124;6.018;2024-03-06T09:38:05;6.40;99.90
47600;DHT22;33323;52.124;6.018;2024-03-06T09:40:32;6.30;99.90
47600;DHT22;33323;52.124;6.018;2024-03-06T09:43:00;6.30;99.90
47600;DHT22;33323;52.124;6.018;2024-03-06T09:45:28;6.40;99.90
47600;DHT22;33323;52.124;6.018;2024-03-06T09:47:55;6.60;99.90
47600;DHT22;33323;52.124;6.018;2024-03-06T09:50:23;6.70;99.90
47600;DHT22;33323;52.124;6.018;2024-03-06T09:52:55;6.70;99.90
47600;DHT22;33323;52.124;6.018;2024-03-06T09:55:22;6.50;99.90
47600;DHT22;33323;52.124;6.018;2024-03-06T09:57:51;6.50;99.90
47600;DHT22;33323;52.124;6.018;2024-03-06T10:00:18;6.60;99.90
47600;DHT22;33323;52.124;6.018;2024-03-06T10:02:57;6.70;99.90
47600;DHT22;33323;52.124;6.018;2024-03-06T10:05:27;6.70;99.90
47600;DHT22;33323;52.124;6.018;2024-03-06T10:07:55;6.80;99.90
47600;DHT22;33323;52.124;6.018;2024-03-06T10:10:23;6.80;99.90
47600;DHT22;33323;52.124;6.018;2024-03-06T10:12:51;6.90;99.90
47600;DHT22;33323;52.124;6.018;2024-03-06T10:15:19;6.90;99.90
47600;DHT22;33323;52.124;6.018;2024-03-06T10:17:46;7.10;99.90
47600;DHT22;33323;52.124;6.018;2024-03-06T10:20:19;7.20;99.90
47600;DHT22;33323;52.124;6.018;2024-03-06T10:22:52;7.20;99.90
47600;DHT22;33323;52.124;6.018;2024-03-06T10:25:25;7.10;99.90
47600;DHT22;33323;52.124;6.018;2024-03-06T10:28:21;7.20;99.90
47600;DHT22;33323;52.124;6.018;2024-03-06T10:30:50;7.40;99.90
47600;DHT22;33323;52.124;6.018;2024-03-06T10:33:19;7.30;99.90
47600;DHT22;33323;52.124;6.018;2024-03-06T10:35:48;7.30;99.90
47600;DHT22;33323;52.124;6.018;2024-03-06T10:38:16;7.40;99.90
47600;DHT22;33323;52.124;6.018;2024-03-06T10:40:44;7.30;99.90
47600;DHT22;33323;52.124;6.018;2024-03-06T10:43:11;7.10;99.90
47600;DHT22;33323;52.124;6.018;2024-03-06T10:48:18;7.20;99.90
47600;DHT22;33323;52.124;6.018;2024-03-06T10:50:47;7.50;99.90
47600;DHT22;33323;52.124;6.018;2024-03-06T10:53:17;7.70;99.90
47600;DHT22;33323;52.124;6.018;2024-03-06T10:55:50;7.80;99.90
47600;DHT22;33323;52.124;6.018;2024-03-06T10:58:19;8.10;99.90
47600;DHT22;33323;52.124;6.018;2024-03-06T11:00:48;8.30;99.90
47600;DHT22;33323;52.124;6.018;2024-03-06T11:03:16;8.50;99.90
47600;DHT22;33323;52.124;6.018;2024-03-06T11:05:45;8.70;99.90
47600;DHT22;33323;52.124;6.018;2024-03-06T11:08:19;8.80;99.90
47600;DHT22;33323;52.124;6.018;2024-03-06T11:10:49;8.80;99.90
47600;DHT22;33323;52.124;6.018;2024-03-06T11:13:21;8.70;99.90
47600;DHT22;33323;52.124;6.018;2024-03-06T11:16:01;8.80;99.90
47600;DHT22;33323;52.124;6.018;2024-03-06T11:24:24;8.70;99.90
47600;DHT22;33323;52.124;6.018;2024-03-06T11:27:03;8.70;99.90
47600;DHT22;33323;52.124;6.018;2024-03-06T11:30:06;8.80;99.90
47600;DHT22;33323;52.124;6.018;2024-03-06T11:32:57;8.70;99.90
47600;DHT22;33323;52.124;6.018;2024-03-06T11:35:29;8.60;99.90
47600;DHT22;33323;52.124;6.018;2024-03-06T11:37:58;8.50;99.90
47600;DHT22;33323;52.124;6.018;2024-03-06T11:40:26;8.30;99.90
47600;DHT22;33323;52.124;6.018;2024-03-06T11:42:54;8.40;99.90
47600;DHT22;33323;52.124;6.018;2024-03-06T11:45:21;8.40;99.90
47600;DHT22;33323;52.124;6.018;2024-03-06T11:48:02;8.60;99.90
47600;DHT22;33323;52.124;6.018;2024-03-06T11:50:30;8.70;99.90
47600;DHT22;33323;52.124;6.018;2024-03-06T11:53:01;8.90;99.90
47600;DHT22;33323;52.124;6.018;2024-03-06T11:55:30;8.90;99.90
47600;DHT22;33323;52.124;6.018;2024-03-06T11:57:58;8.90;99.90
47600;DHT22;33323;52.124;6.018;2024-03-06T12:00:25;8.70;99.90
47600;DHT22;33323;52.124;6.018;2024-03-06T12:02:53;8.60;99.90
47600;DHT22;33323;52.124;6.018;2024-03-06T12:05:20;8.50;99.90
47600;DHT22;33323;52.124;6.018;2024-03-06T12:07:50;8.60;99.90
47600;DHT22;33323;52.124;6.018;2024-03-06T12:10:18;8.50;99.90
47600;DHT22;33323;52.124;6.018;2024-03-06T12:12:45;8.60;99.90
47600;DHT22;33323;52.124;6.018;2024-03-06T12:15:16;9.00;99.90
47600;DHT22;33323;52.124;6.018;2024-03-06T12:17:47;9.20;99.90
47600;DHT22;33323;52.124;6.018;2024-03-06T12:20:19;9.60;99.90
47600;DHT22;33323;52.124;6.018;2024-03-06T12:22:53;9.70;99.90
47600;DHT22;33323;52.124;6.018;2024-03-06T12:25:25;9.60;99.90
47600;DHT22;33323;52.124;6.018;2024-03-06T12:28:07;9.60;99.90
47600;DHT22;33323;52.124;6.018;2024-03-06T12:30:41;10.00;99.90
47600;DHT22;33323;52.124;6.018;2024-03-06T12:33:11;10.40;99.90
47600;DHT22;33323;52.124;6.018;2024-03-06T12:35:43;10.90;99.90
47600;DHT22;33323;52.124;6.018;2024-03-06T12:38:15;11.20;99.90
47600;DHT22;33323;52.124;6.018;2024-03-06T12:40:43;11.20;99.90
47600;DHT22;33323;52.124;6.018;2024-03-06T12:43:10;11.40;99.90
47600;DHT22;33323;52.124;6.018;2024-03-06T12:45:38;11.70;99.90
47600;DHT22;33323;52.124;6.018;2024-03-06T12:48:07;11.90;99.90
47600;DHT22;33323;52.124;6.018;2024-03-06T12:50:34;12.00;99.90
47600;DHT22;33323;52.124;6.018;2024-03-06T12:53:02;12.00;99.90
47600;DHT22;33323;52.124;6.018;2024-03-06T12:55:31;11.60;99.90
47600;DHT22;33323;52.124;6.018;2024-03-06T12:57:59;11.50;99.90
47600;DHT22;33323;52.124;6.018;2024-03-06T13:00:26;11.80;99.90
47600;DHT22;33323;52.124;6.018;2024-03-06T13:02:54;12.10;99.90
47600;DHT22;33323;52.124;6.018;2024-03-06T13:05:21;12.00;99.90
47600;DHT22;33323;52.124;6.018;2024-03-06T13:07:49;12.00;99.90
47600;DHT22;33323;52.124;6.018;2024-03-06T13:10:17;11.60;99.90
47600;DHT22;33323;52.124;6.018;2024-03-06T13:12:44;11.20;99.90
47600;DHT22;33323;52.124;6.018;2024-03-06T13:15:12;11.60;99.90
47600;DHT22;33323;52.124;6.018;2024-03-06T13:17:40;11.80;99.90
47600;DHT22;33323;52.124;6.018;2024-03-06T13:20:08;12.00;99.90
47600;DHT22;33323;52.124;6.018;2024-03-06T13:22:39;11.70;99.90
47600;DHT22;33323;52.124;6.018;2024-03-06T13:25:07;11.90;99.90
47600;DHT22;33323;52.124;6.018;2024-03-06T13:27:34;11.90;99.90
47600;DHT22;33323;52.124;6.018;2024-03-06T13:30:02;12.30;99.90
47600;DHT22;33323;52.124;6.018;2024-03-06T13:32:32;11.90;99.90
47600;DHT22;33323;52.124;6.018;2024-03-06T13:34:59;12.00;99.90
47600;DHT22;33323;52.124;6.018;2024-03-06T13:37:27;11.90;99.90
47600;DHT22;33323;52.124;6.018;2024-03-06T13:39:54;12.00;99.90
47600;DHT22;33323;52.124;6.018;2024-03-06T13:42:27;11.90;99.90
47600;DHT22;33323;52.124;6.018;2024-03-06T13:44:55;11.70;99.90
47600;DHT22;33323;52.124;6.018;2024-03-06T13:47:22;11.80;99.90
47600;DHT22;33323;52.124;6.018;2024-03-06T13:49:50;11.80;99.90
47600;DHT22;33323;52.124;6.018;2024-03-06T13:52:17;12.00;99.90
47600;DHT22;33323;52.124;6.018;2024-03-06T13:54:47;12.20;99.90
47600;DHT22;33323;52.124;6.018;2024-03-06T13:57:15;12.10;99.90
47600;DHT22;33323;52.124;6.018;2024-03-06T13:59:43;12.00;99.90
47600;DHT22;33323;52.124;6.018;2024-03-06T14:02:10;11.90;99.90
47600;DHT22;33323;52.124;6.018;2024-03-06T14:04:38;12.10;99.90
47600;DHT22;33323;52.124;6.018;2024-03-06T14:07:05;12.40;99.90
47600;DHT22;33323;52.124;6.018;2024-03-06T14:09:34;12.70;99.90
47600;DHT22;33323;52.124;6.018;2024-03-06T14:12:02;13.00;99.90
47600;DHT22;33323;52.124;6.018;2024-03-06T14:14:29;13.00;99.90
47600;DHT22;33323;52.124;6.018;2024-03-06T14:16:57;13.00;99.90
47600;DHT22;33323;52.124;6.018;2024-03-06T14:19:25;12.80;99.90
47600;DHT22;33323;52.124;6.018;2024-03-06T14:21:53;12.90;99.90
47600;DHT22;33323;52.124;6.018;2024-03-06T14:24:21;13.10;99.90
47600;DHT22;33323;52.124;6.018;2024-03-06T14:26:48;13.00;99.90
47600;DHT22;33323;52.124;6.018;2024-03-06T14:29:16;13.10;99.90
47600;DHT22;33323;52.124;6.018;2024-03-06T14:31:43;13.20;99.90
47600;DHT22;33323;52.124;6.018;2024-03-06T14:34:13;13.30;99.90
47600;DHT22;33323;52.124;6.018;2024-03-06T14:36:41;13.30;99.90
47600;DHT22;33323;52.124;6.018;2024-03-06T14:39:10;13.20;99.90
47600;DHT22;33323;52.124;6.018;2024-03-06T14:41:38;13.50;99.90
47600;DHT22;33323;52.124;6.018;2024-03-06T14:44:05;13.40;99.90
47600;DHT22;33323;52.124;6.018;2024-03-06T14:46:33;13.10;99.90
47600;DHT22;33323;52.124;6.018;2024-03-06T14:49:00;12.70;99.90
47600;DHT22;33323;52.124;6.018;2024-03-06T14:51:29;12.30;99.90
47600;DHT22;33323;52.124;6.018;2024-03-06T14:53:57;12.20;99.90
47600;DHT22;33323;52.124;6.018;2024-03-06T14:56:24;12.50;99.90
47600;DHT22;33323;52.124;6.018;2024-03-06T14:58:51;12.70;99.90
47600;DHT22;33323;52.124;6.018;2024-03-06T15:01:19;12.80;99.90
47600;DHT22;33323;52.124;6.018;2024-03-06T15:03:46;12.70;99.90
47600;DHT22;33323;52.124;6.018;2024-03-06T15:06:15;12.70;99.90
47600;DHT22;33323;52.124;6.018;2024-03-06T15:08:42;12.20;99.90
47600;DHT22;33323;52.124;6.018;2024-03-06T15:11:11;11.80;99.90
47600;DHT22;33323;52.124;6.018;2024-03-06T15:13:39;11.60;99.90
47600;DHT22;33323;52.124;6.018;2024-03-06T15:16:07;11.50;99.90
47600;DHT22;33323;52.124;6.018;2024-03-06T15:18:36;11.50;99.90
47600;DHT22;33323;52.124;6.018;2024-03-06T15:21:04;11.50;99.90
47600;DHT22;33323;52.124;6.018;2024-03-06T15:23:32;11.40;99.90
47600;DHT22;33323;52.124;6.018;2024-03-06T15:25:59;11.40;99.90
47600;DHT22;33323;52.124;6.018;2024-03-06T15:28:27;11.40;99.90
47600;DHT22;33323;52.124;6.018;2024-03-06T15:30:54;11.30;99.90
47600;DHT22;33323;52.124;6.018;2024-03-06T15:33:23;11.40;99.90
47600;DHT22;33323;52.124;6.018;2024-03-06T15:35:52;11.30;99.90
47600;DHT22;33323;52.124;6.018;2024-03-06T15:38:20;11.30;99.90
47600;DHT22;33323;52.124;6.018;2024-03-06T15:40:47;11.40;99.90
47600;DHT22;33323;52.124;6.018;2024-03-06T15:43:17;11.40;99.90
47600;DHT22;33323;52.124;6.018;2024-03-06T15:45:45;11.40;99.90
47600;DHT22;33323;52.124;6.018;2024-03-06T15:48:13;11.40;99.90
47600;DHT22;33323;52.124;6.018;2024-03-06T15:50:42;11.30;99.90
47600;DHT22;33323;52.124;6.018;2024-03-06T15:53:10;11.10;99.90
47600;DHT22;33323;52.124;6.018;2024-03-06T15:55:39;10.90;99.90
47600;DHT22;33323;52.124;6.018;2024-03-06T15:58:07;10.80;99.90
47600;DHT22;33323;52.124;6.018;2024-03-06T16:00:35;10.80;99.90
47600;DHT22;33323;52.124;6.018;2024-03-06T16:03:04;10.80;99.90